createdAt,value
2022-12-03T00:04:38.756Z,1005.89
2022-12-03T00:09:38.700Z,1005.88
2022-12-03T00:14:52.660Z,1005.90
2022-12-03T00:19:39.601Z,1005.86
2022-12-03T00:24:38.503Z,1005.84
2022-12-03T00:29:38.446Z,1005.81
2022-12-03T00:34:38.373Z,1005.78
2022-12-03T00:39:38.322Z,1005.78
2022-12-03T00:44:38.248Z,1005.76
2022-12-03T00:49:38.191Z,1005.77
2022-12-03T00:54:38.126Z,1005.74
2022-12-03T00:59:38.077Z,1005.77
2022-12-03T01:04:38.101Z,1005.78
2022-12-03T01:09:37.946Z,1005.82
2022-12-03T01:14:37.871Z,1005.81
2022-12-03T01:19:37.818Z,1005.82
2022-12-03T01:24:37.739Z,1005.75
2022-12-03T01:29:37.693Z,1005.76
2022-12-03T01:34:37.611Z,1005.78
2022-12-03T01:39:37.557Z,1005.72
2022-12-03T01:44:37.487Z,1005.73
2022-12-03T01:49:37.431Z,1005.74
2022-12-03T01:54:37.374Z,1005.69
2022-12-03T01:59:37.302Z,1005.72
2022-12-03T02:04:37.233Z,1005.78
2022-12-03T02:09:37.176Z,1005.78
2022-12-03T02:14:37.104Z,1005.68
2022-12-03T02:19:37.058Z,1005.65
2022-12-03T02:24:36.981Z,1005.67
2022-12-03T02:29:36.932Z,1005.72
2022-12-03T02:34:36.849Z,1005.71
2022-12-03T02:39:36.804Z,1005.70
2022-12-03T02:44:36.726Z,1005.68
2022-12-03T02:49:36.680Z,1005.74
2022-12-03T02:54:36.606Z,1005.69
2022-12-03T02:59:36.543Z,1005.68
2022-12-03T03:04:36.477Z,1005.64
2022-12-03T03:09:36.415Z,1005.67
2022-12-03T03:14:36.351Z,1005.73
2022-12-03T03:19:36.288Z,1005.75
2022-12-03T03:24:36.221Z,1005.73
2022-12-03T03:29:36.161Z,1005.69
2022-12-03T03:34:36.096Z,1005.65
2022-12-03T03:39:36.023Z,1005.63
2022-12-03T03:44:35.970Z,1005.60
2022-12-03T03:49:35.897Z,1005.53
2022-12-03T03:54:35.839Z,1005.58
2022-12-03T03:59:35.771Z,1005.58
2022-12-03T04:04:35.864Z,1005.56
2022-12-03T04:09:35.642Z,1005.56
2022-12-03T04:14:35.586Z,1005.55
2022-12-03T04:19:35.526Z,1005.45
2022-12-03T04:24:35.472Z,1005.43
2022-12-03T04:29:35.421Z,1005.39
2022-12-03T04:34:35.348Z,1005.45
2022-12-03T04:39:35.288Z,1005.46
2022-12-03T04:44:35.217Z,1005.42
2022-12-03T04:49:35.161Z,1005.42
2022-12-03T04:54:35.090Z,1005.36
2022-12-03T04:59:35.031Z,1005.39
2022-12-03T05:04:34.962Z,1005.38
2022-12-03T05:09:34.908Z,1005.35
2022-12-03T05:14:34.834Z,1005.31
2022-12-03T05:19:34.776Z,1005.28
2022-12-03T05:24:34.710Z,1005.24
2022-12-03T05:29:34.651Z,1005.23
2022-12-03T05:34:34.577Z,1005.25
2022-12-03T05:39:34.525Z,1005.29
2022-12-03T05:44:34.459Z,1005.25
2022-12-03T05:49:34.396Z,1005.26
2022-12-03T05:54:34.325Z,1005.18
2022-12-03T05:59:34.273Z,1005.16
2022-12-03T06:04:34.197Z,1005.15
2022-12-03T06:09:34.142Z,1005.15
2022-12-03T06:14:34.070Z,1005.16
2022-12-03T06:19:34.016Z,1005.20
2022-12-03T06:24:33.945Z,1005.25
2022-12-03T06:29:33.890Z,1005.23
2022-12-03T06:34:33.818Z,1005.19
2022-12-03T06:39:33.760Z,1005.26
2022-12-03T06:44:33.692Z,1005.32
2022-12-03T06:49:33.633Z,1005.25
2022-12-03T06:54:33.563Z,1005.28
2022-12-03T06:59:33.505Z,1005.25
2022-12-03T07:04:33.435Z,1005.28
2022-12-03T07:09:33.391Z,1005.27
2022-12-03T07:14:33.307Z,1005.28
2022-12-03T07:19:33.412Z,1005.31
2022-12-03T07:24:33.185Z,1005.30
2022-12-03T07:29:33.123Z,1005.25
2022-12-03T07:34:33.053Z,1005.29
2022-12-03T07:39:33.000Z,1005.27
2022-12-03T07:44:32.925Z,1005.27
2022-12-03T07:49:32.870Z,1005.29
2022-12-03T07:54:32.813Z,1005.29
2022-12-03T07:59:32.744Z,1005.33
2022-12-03T08:04:32.670Z,1005.33
2022-12-03T08:09:32.622Z,1005.32
2022-12-03T08:14:32.544Z,1005.23
2022-12-03T08:19:32.488Z,1005.25
2022-12-03T08:24:32.415Z,1005.23
2022-12-03T08:29:32.361Z,1005.22
2022-12-03T08:34:32.288Z,1005.16
2022-12-03T08:39:32.232Z,1005.24
2022-12-03T08:44:32.160Z,1005.22
2022-12-03T08:49:32.103Z,1005.25
2022-12-03T08:54:32.032Z,1005.25
2022-12-03T08:59:31.974Z,1005.17
2022-12-03T09:04:32.068Z,1005.10
2022-12-03T09:09:31.848Z,1005.08
2022-12-03T09:14:31.783Z,1005.05
2022-12-03T09:19:31.719Z,1005.06
2022-12-03T09:24:31.648Z,1005.13
2022-12-03T09:29:31.591Z,1005.23
2022-12-03T09:34:31.544Z,1005.22
2022-12-03T09:39:31.462Z,1005.25
2022-12-03T09:44:31.392Z,1005.21
2022-12-03T09:49:31.335Z,1005.17
2022-12-03T09:54:31.266Z,1005.19
2022-12-03T09:59:31.209Z,1005.16
2022-12-03T10:04:31.230Z,1005.09
2022-12-03T10:09:31.081Z,1004.97
2022-12-03T10:14:31.025Z,1004.88
2022-12-03T10:19:30.951Z,1004.85
2022-12-03T10:24:30.879Z,1004.79
2022-12-03T10:29:33.942Z,1004.70
2022-12-03T10:34:30.792Z,1004.71
2022-12-03T10:39:30.695Z,1004.67
2022-12-03T10:44:30.621Z,1004.68
2022-12-03T10:49:30.567Z,1004.63
2022-12-03T10:54:30.496Z,1004.61
2022-12-03T10:59:30.441Z,1004.60
2022-12-03T11:04:30.369Z,1004.57
2022-12-03T11:09:30.309Z,1004.46
2022-12-03T11:14:30.238Z,1004.46
2022-12-03T11:19:30.182Z,1004.38
2022-12-03T11:24:30.110Z,1004.40
2022-12-03T11:29:30.052Z,1004.30
2022-12-03T11:34:29.982Z,1004.20
2022-12-03T11:39:29.930Z,1004.19
2022-12-03T11:44:29.859Z,1004.16
2022-12-03T11:49:29.801Z,1004.07
2022-12-03T11:54:29.721Z,1004.08
2022-12-03T11:59:29.667Z,1004.03
2022-12-03T12:04:29.705Z,1003.92
2022-12-03T12:09:29.538Z,1003.95
2022-12-03T12:14:29.465Z,1003.89
2022-12-03T12:19:29.411Z,1003.84
2022-12-03T12:24:29.393Z,1003.83
2022-12-03T12:29:29.284Z,1003.81
2022-12-03T12:34:29.208Z,1003.78
2022-12-03T12:39:29.152Z,1003.69
2022-12-03T12:44:29.083Z,1003.59
2022-12-03T12:49:29.026Z,1003.68
2022-12-03T12:54:28.953Z,1003.62
2022-12-03T12:59:28.946Z,1003.54
2022-12-03T13:04:28.977Z,1003.59
2022-12-03T13:09:28.970Z,1003.40
2022-12-03T13:14:28.997Z,1003.43
2022-12-03T13:19:28.641Z,1003.47
2022-12-03T13:24:28.569Z,1003.38
2022-12-03T13:29:28.511Z,1003.41
2022-12-03T13:34:28.441Z,1003.40
2022-12-03T13:39:28.384Z,1003.44
2022-12-03T13:44:28.313Z,1003.42
2022-12-03T13:49:28.256Z,1003.32
2022-12-03T13:54:28.184Z,1003.25
2022-12-03T13:59:28.127Z,1003.36
2022-12-03T14:04:28.055Z,1003.46
2022-12-03T14:09:27.999Z,1003.55
2022-12-03T14:14:27.925Z,1003.49
2022-12-03T14:19:27.869Z,1003.45
2022-12-03T14:24:27.799Z,1003.47
2022-12-03T14:29:27.741Z,1003.48
2022-12-03T14:34:27.674Z,1003.44
2022-12-03T14:39:27.609Z,1003.43
2022-12-03T14:44:27.541Z,1003.56
2022-12-03T14:49:27.484Z,1003.48
2022-12-03T14:54:27.465Z,1003.51
2022-12-03T14:59:28.133Z,1003.51
2022-12-03T15:04:27.483Z,1003.49
2022-12-03T15:09:27.479Z,1003.47
2022-12-03T15:14:27.607Z,1003.46
2022-12-03T15:19:27.500Z,1003.54
2022-12-03T15:24:27.478Z,1003.60
2022-12-03T15:29:27.573Z,1003.45
2022-12-03T15:34:26.902Z,1003.30
2022-12-03T15:39:26.844Z,1003.39
2022-12-03T15:44:26.775Z,1003.37
2022-12-03T15:49:26.718Z,1003.33
2022-12-03T15:54:26.662Z,1003.36
2022-12-03T15:59:26.588Z,1003.38
2022-12-03T16:04:26.520Z,1003.36
2022-12-03T16:09:27.669Z,1003.40
2022-12-03T16:14:26.390Z,1003.43
2022-12-03T16:19:26.332Z,1003.39
2022-12-03T16:24:26.261Z,1003.25
2022-12-03T16:29:26.205Z,1003.25
2022-12-03T16:34:26.132Z,1003.22
2022-12-03T16:39:26.077Z,1003.23
2022-12-03T16:44:26.005Z,1003.17
2022-12-03T16:49:25.950Z,1003.20
2022-12-03T16:54:25.877Z,1003.28
2022-12-03T16:59:25.823Z,1003.31
2022-12-03T17:04:25.749Z,1003.23
2022-12-03T17:09:25.694Z,1003.17
2022-12-03T17:14:31.488Z,1003.14
2022-12-03T17:19:25.565Z,1003.06
2022-12-03T17:24:25.497Z,1003.05
2022-12-03T17:29:25.437Z,1003.02
2022-12-03T17:34:25.366Z,1003.02
2022-12-03T17:39:25.310Z,1002.97
2022-12-03T17:44:25.244Z,1003.00
2022-12-03T17:49:30.017Z,1003.04
2022-12-03T17:54:37.953Z,1002.99
2022-12-03T17:59:26.079Z,1002.96
2022-12-03T18:04:25.009Z,1002.98
2022-12-03T18:09:24.923Z,1002.95
2022-12-03T18:14:24.850Z,1003.04
2022-12-03T18:19:24.809Z,1002.97
2022-12-03T18:24:24.733Z,1002.98
2022-12-03T18:29:24.669Z,1002.91
2022-12-03T18:34:24.595Z,1002.91
2022-12-03T18:39:24.538Z,1002.90
2022-12-03T18:44:24.465Z,1002.91
2022-12-03T18:49:24.409Z,1002.82
2022-12-03T18:54:24.340Z,1002.83
2022-12-03T18:59:24.283Z,1002.80
2022-12-03T19:04:24.212Z,1002.73
2022-12-03T19:09:24.153Z,1002.74
2022-12-03T19:14:24.082Z,1002.76
2022-12-03T19:19:24.028Z,1002.72
2022-12-03T19:24:25.320Z,1002.81
2022-12-03T19:29:23.899Z,1002.79
2022-12-03T19:34:23.827Z,1002.80
2022-12-03T19:39:23.781Z,1002.74
2022-12-03T19:44:23.699Z,1002.76
2022-12-03T19:49:23.649Z,1002.68
2022-12-03T19:54:23.573Z,1002.71
2022-12-03T19:59:23.867Z,1002.74
2022-12-03T20:04:23.446Z,1002.72
2022-12-03T20:09:23.389Z,1002.74
2022-12-03T20:14:23.317Z,1002.69
2022-12-03T20:19:23.262Z,1002.65
2022-12-03T20:24:23.197Z,1002.70
2022-12-03T20:29:23.140Z,1002.67
2022-12-03T20:34:23.059Z,1002.67
2022-12-03T20:39:23.003Z,1002.71
2022-12-03T20:44:22.932Z,1002.68
2022-12-03T20:49:22.876Z,1002.62
2022-12-03T20:54:22.814Z,1002.64
2022-12-03T20:59:22.748Z,1002.57
2022-12-03T21:04:22.676Z,1002.55
2022-12-03T21:09:22.621Z,1002.47
2022-12-03T21:14:22.555Z,1002.41
2022-12-03T21:19:22.493Z,1002.49
2022-12-03T21:24:22.420Z,1002.52
2022-12-03T21:29:22.365Z,1002.54
2022-12-03T21:34:22.291Z,1002.53
2022-12-03T21:39:22.234Z,1002.49
2022-12-03T21:44:22.166Z,1002.52
2022-12-03T21:49:22.104Z,1002.44
2022-12-03T21:54:22.039Z,1002.49
2022-12-03T21:59:21.987Z,1002.51
2022-12-03T22:04:21.908Z,1002.53
2022-12-03T22:09:26.552Z,1002.50
2022-12-03T22:14:21.783Z,1002.55
2022-12-03T22:19:21.722Z,1002.46
2022-12-03T22:24:21.651Z,1002.48
2022-12-03T22:29:21.597Z,1002.42
2022-12-03T22:34:21.523Z,1002.39
2022-12-03T22:39:21.463Z,1002.32
2022-12-03T22:44:21.403Z,1002.23
2022-12-03T22:49:21.338Z,1002.27
2022-12-03T22:54:24.153Z,1002.30
2022-12-03T22:59:21.211Z,1002.26
2022-12-03T23:04:21.214Z,1002.20
2022-12-03T23:09:21.082Z,1002.11
2022-12-03T23:14:21.010Z,1002.12
2022-12-03T23:19:20.956Z,1002.00
2022-12-03T23:24:20.884Z,1001.97
2022-12-03T23:29:20.824Z,1001.91
2022-12-03T23:34:20.827Z,1001.95
2022-12-03T23:39:20.697Z,1001.90
2022-12-03T23:44:20.624Z,1001.90
2022-12-03T23:49:20.568Z,1001.76
2022-12-03T23:54:20.494Z,1001.88
2022-12-03T23:59:20.444Z,1001.87
